Airfield :
LOGIN :

Register | Disclaimer

   EN    FR    IT 

 










Legend :    VFR   Marginal VFR   IFR   Intensive IFR   Very Intensive IFR
Visi :
Ceiling :
>= 8 km
>= 3000ft
5 to 8 km
1000 to 3000 ft
1500m to 5 km
500 to 1000 ft
800 to 1500m
200 to 500 ft
< 800m
< 200 ft
Symbols :   Thunderstorms  Fog  Heavy snow  Heavy precipitations  Wind > 20 kt
SIGMETs :     Misc.  Thunderstorms  Icing  Turbulence  Mountain Waves  Volcanic Ashes






- Airport Elevation : 1768 ft


LEHC - Huesca Pirineos

CURRENT METAR :
  • 232330Z AUTO 00000KT 9999 FEW027 BKN037 10/09 Q1011

EXPIRED METARs :
  • 232300Z AUTO VRB02KT 9999 FEW040 08/08 Q1010
  • 232230Z AUTO 15003KT 110V180 9999 NCD 09/09 Q1010
  • 232200Z AUTO 16004KT 120V180 9999 NCD 10/09 Q1009
  • 232130Z AUTO 00000KT CAVOK 10/09 Q1009
  • 232100Z AUTO VRB02KT CAVOK 11/09 Q1009

TAF TAF LEHC
Valid from the 23 at 15:00 until the 24 at 15:00 UTC


231400Z 2315/2415 13010KT 9999 SCT030 TX17/2414Z TN08/2406Z
TEMPO 2315/2322 2000 RA BR BKN010
BECMG 2316/2318 VRB04KT
TEMPO 2323/2406 3000 BR BKN010



MET'MAP, your aeronautical weather chart ! - Copyright ORBIFLY December 2007 - Disclaimer

ORBIFLY MET'MAP TEAM :

Programming & Development : Alexandra Zaïnal
Concept & Development : Baudouin d'Aumeries
Co-Development & Prog : Marc-Olivier Méhu
Technical & hardware support : Manuel Goepfert

Contact : metmap@orbifly.com




SOURCES & CREDITS :

   NOAA